sensor_id;sensor_type;location;lat;lon;timestamp;noise_LAeq;noise_LA_min;noise_LA_max;noise_LA01;noise_LA95
77361;Laerm;66427;51.798;10.954;2023-06-14T00:00:39;37.80;31.97;46.64;;
77361;Laerm;66427;51.798;10.954;2023-06-14T00:03:08;35.37;30.61;43.43;;
77361;Laerm;66427;51.798;10.954;2023-06-14T00:05:42;33.39;29.80;49.57;;
77361;Laerm;66427;51.798;10.954;2023-06-14T00:08:09;38.12;30.91;46.08;;
77361;Laerm;66427;51.798;10.954;2023-06-14T00:10:37;39.50;30.71;48.61;;
77361;Laerm;66427;51.798;10.954;2023-06-14T00:13:06;35.36;30.22;45.07;;
77361;Laerm;66427;51.798;10.954;2023-06-14T00:15:32;35.49;31.09;43.07;;
77361;Laerm;66427;51.798;10.954;2023-06-14T00:17:58;42.40;33.21;51.80;;
77361;Laerm;66427;51.798;10.954;2023-06-14T00:20:27;38.96;31.45;47.41;;
77361;Laerm;66427;51.798;10.954;2023-06-14T00:22:53;38.63;30.64;49.35;;
77361;Laerm;66427;51.798;10.954;2023-06-14T00:25:22;46.89;32.74;61.86;;
77361;Laerm;66427;51.798;10.954;2023-06-14T00:27:47;40.20;31.75;50.61;;
77361;Laerm;66427;51.798;10.954;2023-06-14T00:30:13;35.97;29.66;49.90;;
77361;Laerm;66427;51.798;10.954;2023-06-14T00:32:39;37.12;32.33;43.58;;
77361;Laerm;66427;51.798;10.954;2023-06-14T00:35:05;34.97;29.48;43.98;;
77361;Laerm;66427;51.798;10.954;2023-06-14T00:37:32;36.13;29.38;47.40;;
77361;Laerm;66427;51.798;10.954;2023-06-14T00:39:58;34.75;30.05;43.46;;
77361;Laerm;66427;51.798;10.954;2023-06-14T00:42:25;32.13;29.42;45.06;;
77361;Laerm;66427;51.798;10.954;2023-06-14T00:44:50;37.88;30.13;45.54;;
77361;Laerm;66427;51.798;10.954;2023-06-14T00:47:16;33.72;30.08;44.12;;
77361;Laerm;66427;51.798;10.954;2023-06-14T00:49:42;36.83;30.89;44.74;;
77361;Laerm;66427;51.798;10.954;2023-06-14T00:52:08;39.70;30.59;51.26;;
77361;Laerm;66427;51.798;10.954;2023-06-14T00:54:37;36.23;29.53;47.95;;
77361;Laerm;66427;51.798;10.954;2023-06-14T00:57:03;37.19;28.11;47.84;;
77361;Laerm;66427;51.798;10.954;2023-06-14T00:59:29;42.64;27.96;53.31;;
77361;Laerm;66427;51.798;10.954;2023-06-14T01:02:02;36.70;28.66;48.54;;
77361;Laerm;66427;51.798;10.954;2023-06-14T01:04:29;40.57;29.87;49.10;;
77361;Laerm;66427;51.798;10.954;2023-06-14T01:07:02;38.69;28.89;49.71;;
77361;Laerm;66427;51.798;10.954;2023-06-14T01:12:15;37.26;28.66;49.30;;
77361;Laerm;66427;51.798;10.954;2023-06-14T01:14:44;33.04;28.93;39.70;;
77361;Laerm;66427;51.798;10.954;2023-06-14T01:17:10;35.82;29.93;43.69;;
77361;Laerm;66427;51.798;10.954;2023-06-14T01:19:42;33.55;28.35;52.67;;
77361;Laerm;66427;51.798;10.954;2023-06-14T01:22:09;38.19;28.94;49.72;;
77361;Laerm;66427;51.798;10.954;2023-06-14T01:24:35;38.14;30.37;45.91;;
77361;Laerm;66427;51.798;10.954;2023-06-14T01:27:02;36.23;30.28;44.19;;
77361;Laerm;66427;51.798;10.954;2023-06-14T01:29:28;37.71;29.49;46.54;;
77361;Laerm;66427;51.798;10.954;2023-06-14T01:31:58;43.39;29.79;56.20;;
77361;Laerm;66427;51.798;10.954;2023-06-14T01:34:24;34.47;28.17;45.81;;
77361;Laerm;66427;51.798;10.954;2023-06-14T01:36:50;39.73;34.03;44.09;;
77361;Laerm;66427;51.798;10.954;2023-06-14T01:39:16;37.88;32.29;43.15;;
77361;Laerm;66427;51.798;10.954;2023-06-14T01:41:43;40.12;29.90;45.75;;
77361;Laerm;66427;51.798;10.954;2023-06-14T01:44:10;49.09;33.07;65.87;;
77361;Laerm;66427;51.798;10.954;2023-06-14T01:46:36;58.70;34.50;71.31;;
77361;Laerm;66427;51.798;10.954;2023-06-14T01:49:02;58.64;32.94;71.31;;
77361;Laerm;66427;51.798;10.954;2023-06-14T01:51:28;59.47;37.21;71.53;;
77361;Laerm;66427;51.798;10.954;2023-06-14T01:53:54;58.42;35.18;71.79;;
77361;Laerm;66427;51.798;10.954;2023-06-14T01:56:20;59.06;34.02;70.86;;
77361;Laerm;66427;51.798;10.954;2023-06-14T01:58:46;58.26;36.61;71.00;;
77361;Laerm;66427;51.798;10.954;2023-06-14T02:01:13;57.80;36.36;70.33;;
77361;Laerm;66427;51.798;10.954;2023-06-14T02:03:41;56.69;39.21;70.41;;
77361;Laerm;66427;51.798;10.954;2023-06-14T02:06:07;56.77;37.33;72.87;;
77361;Laerm;66427;51.798;10.954;2023-06-14T02:08:37;57.07;37.89;69.43;;
77361;Laerm;66427;51.798;10.954;2023-06-14T02:11:03;51.96;39.01;64.77;;
77361;Laerm;66427;51.798;10.954;2023-06-14T02:13:33;51.66;39.48;64.87;;
77361;Laerm;66427;51.798;10.954;2023-06-14T02:16:00;51.72;40.20;64.86;;
77361;Laerm;66427;51.798;10.954;2023-06-14T02:18:36;51.92;38.06;63.82;;
77361;Laerm;66427;51.798;10.954;2023-06-14T02:21:03;51.90;38.11;63.15;;
77361;Laerm;66427;51.798;10.954;2023-06-14T02:23:30;51.46;38.79;64.05;;
77361;Laerm;66427;51.798;10.954;2023-06-14T02:25:59;51.18;39.35;64.73;;
77361;Laerm;66427;51.798;10.954;2023-06-14T02:28:27;51.09;39.17;64.78;;
77361;Laerm;66427;51.798;10.954;2023-06-14T02:30:59;51.52;38.48;65.20;;
77361;Laerm;66427;51.798;10.954;2023-06-14T02:33:26;47.59;38.67;55.28;;
77361;Laerm;66427;51.798;10.954;2023-06-14T02:35:55;47.12;38.13;55.16;;
77361;Laerm;66427;51.798;10.954;2023-06-14T02:38:28;47.64;39.16;56.26;;
77361;Laerm;66427;51.798;10.954;2023-06-14T02:40:58;47.16;37.78;55.18;;
77361;Laerm;66427;51.798;10.954;2023-06-14T02:43:33;48.04;38.78;56.71;;
77361;Laerm;66427;51.798;10.954;2023-06-14T02:46:06;47.79;38.73;58.80;;
77361;Laerm;66427;51.798;10.954;2023-06-14T02:48:34;48.99;42.48;55.72;;
77361;Laerm;66427;51.798;10.954;2023-06-14T02:51:00;48.38;42.59;56.68;;
77361;Laerm;66427;51.798;10.954;2023-06-14T02:53:28;47.12;40.07;54.35;;
77361;Laerm;66427;51.798;10.954;2023-06-14T02:55:55;47.60;40.43;56.39;;
77361;Laerm;66427;51.798;10.954;2023-06-14T02:58:27;49.84;40.49;57.97;;
77361;Laerm;66427;51.798;10.954;2023-06-14T03:00:55;51.57;40.93;59.51;;
77361;Laerm;66427;51.798;10.954;2023-06-14T03:03:23;50.77;40.65;59.69;;
77361;Laerm;66427;51.798;10.954;2023-06-14T03:05:52;51.31;41.19;64.76;;
77361;Laerm;66427;51.798;10.954;2023-06-14T03:08:23;49.80;39.75;60.32;;
77361;Laerm;66427;51.798;10.954;2023-06-14T03:10:50;49.69;39.60;59.34;;
77361;Laerm;66427;51.798;10.954;2023-06-14T03:13:20;50.54;40.87;61.14;;
77361;Laerm;66427;51.798;10.954;2023-06-14T03:15:47;50.45;39.64;63.28;;
77361;Laerm;66427;51.798;10.954;2023-06-14T03:18:16;47.20;39.71;59.09;;
77361;Laerm;66427;51.798;10.954;2023-06-14T03:20:42;55.94;40.15;70.91;;
77361;Laerm;66427;51.798;10.954;2023-06-14T03:23:12;53.80;39.64;70.27;;
77361;Laerm;66427;51.798;10.954;2023-06-14T03:25:40;46.69;40.32;60.51;;
77361;Laerm;66427;51.798;10.954;2023-06-14T03:28:07;47.19;42.41;54.90;;
77361;Laerm;66427;51.798;10.954;2023-06-14T03:30:40;47.14;40.38;59.87;;
77361;Laerm;66427;51.798;10.954;2023-06-14T03:33:09;49.92;40.28;61.57;;
77361;Laerm;66427;51.798;10.954;2023-06-14T03:35:37;50.06;41.38;63.37;;
77361;Laerm;66427;51.798;10.954;2023-06-14T03:38:06;49.04;43.39;59.26;;
77361;Laerm;66427;51.798;10.954;2023-06-14T03:40:38;53.10;41.56;65.40;;
77361;Laerm;66427;51.798;10.954;2023-06-14T03:43:12;53.98;41.79;68.41;;
77361;Laerm;66427;51.798;10.954;2023-06-14T03:45:38;51.46;41.08;64.16;;
77361;Laerm;66427;51.798;10.954;2023-06-14T03:48:04;48.22;42.10;57.74;;
77361;Laerm;66427;51.798;10.954;2023-06-14T03:50:34;53.04;41.43;67.76;;
77361;Laerm;66427;51.798;10.954;2023-06-14T03:53:07;54.30;42.59;66.02;;
77361;Laerm;66427;51.798;10.954;2023-06-14T03:55:42;51.07;42.50;64.02;;
77361;Laerm;66427;51.798;10.954;2023-06-14T03:58:08;53.85;43.93;68.79;;
77361;Laerm;66427;51.798;10.954;2023-06-14T04:00:34;63.00;44.72;82.82;;
77361;Laerm;66427;51.798;10.954;2023-06-14T04:03:01;51.00;45.25;63.73;;
77361;Laerm;66427;51.798;10.954;2023-06-14T04:05:28;50.19;42.44;63.54;;
77361;Laerm;66427;51.798;10.954;2023-06-14T04:07:54;54.83;44.53;66.11;;
77361;Laerm;66427;51.798;10.954;2023-06-14T04:10:21;49.74;42.85;60.38;;
77361;Laerm;66427;51.798;10.954;2023-06-14T04:12:48;55.50;44.16;69.27;;
77361;Laerm;66427;51.798;10.954;2023-06-14T04:15:16;50.91;43.91;64.44;;
77361;Laerm;66427;51.798;10.954;2023-06-14T04:17:41;51.33;42.94;60.53;;
77361;Laerm;66427;51.798;10.954;2023-06-14T04:20:08;53.91;42.63;67.86;;
77361;Laerm;66427;51.798;10.954;2023-06-14T04:22:35;53.96;45.60;68.11;;
77361;Laerm;66427;51.798;10.954;2023-06-14T04:25:01;54.27;43.75;67.98;;
77361;Laerm;66427;51.798;10.954;2023-06-14T04:27:29;56.86;44.64;68.78;;
77361;Laerm;66427;51.798;10.954;2023-06-14T04:30:00;54.85;43.84;66.81;;
77361;Laerm;66427;51.798;10.954;2023-06-14T04:32:27;52.43;42.56;65.55;;
77361;Laerm;66427;51.798;10.954;2023-06-14T04:34:55;52.77;43.61;68.69;;
77361;Laerm;66427;51.798;10.954;2023-06-14T04:37:24;56.39;43.95;67.71;;
77361;Laerm;66427;51.798;10.954;2023-06-14T04:39:50;50.47;41.92;64.60;;
77361;Laerm;66427;51.798;10.954;2023-06-14T04:42:16;46.66;42.82;52.62;;
77361;Laerm;66427;51.798;10.954;2023-06-14T04:44:46;56.14;42.64;69.62;;
77361;Laerm;66427;51.798;10.954;2023-06-14T04:47:12;53.90;43.20;67.54;;
77361;Laerm;66427;51.798;10.954;2023-06-14T04:49:39;53.30;41.63;68.76;;
77361;Laerm;66427;51.798;10.954;2023-06-14T04:52:06;55.79;41.71;67.21;;
77361;Laerm;66427;51.798;10.954;2023-06-14T04:54:32;58.16;42.31;73.33;;
77361;Laerm;66427;51.798;10.954;2023-06-14T04:56:59;62.13;40.98;79.94;;
77361;Laerm;66427;51.798;10.954;2023-06-14T04:59:25;53.77;40.83;66.94;;
77361;Laerm;66427;51.798;10.954;2023-06-14T05:01:51;54.93;40.63;68.46;;
77361;Laerm;66427;51.798;10.954;2023-06-14T05:04:18;57.53;40.72;69.51;;
77361;Laerm;66427;51.798;10.954;2023-06-14T05:06:45;56.18;40.22;70.07;;
77361;Laerm;66427;51.798;10.954;2023-06-14T05:09:15;54.68;41.03;65.39;;
77361;Laerm;66427;51.798;10.954;2023-06-14T05:11:42;55.70;41.15;68.53;;
77361;Laerm;66427;51.798;10.954;2023-06-14T05:14:10;54.49;40.58;64.46;;
77361;Laerm;66427;51.798;10.954;2023-06-14T05:16:36;56.11;41.12;66.71;;
77361;Laerm;66427;51.798;10.954;2023-06-14T05:19:03;51.30;41.42;64.14;;
77361;Laerm;66427;51.798;10.954;2023-06-14T05:21:29;59.34;41.98;75.40;;
77361;Laerm;66427;51.798;10.954;2023-06-14T05:23:55;59.43;42.83;71.93;;
77361;Laerm;66427;51.798;10.954;2023-06-14T05:26:21;55.62;42.40;70.82;;
77361;Laerm;66427;51.798;10.954;2023-06-14T05:28:54;57.89;42.62;68.51;;
77361;Laerm;66427;51.798;10.954;2023-06-14T05:31:22;65.15;50.80;77.01;;
77361;Laerm;66427;51.798;10.954;2023-06-14T05:33:49;58.95;40.75;72.83;;
77361;Laerm;66427;51.798;10.954;2023-06-14T05:36:15;47.18;41.63;55.84;;
77361;Laerm;66427;51.798;10.954;2023-06-14T05:38:41;54.55;42.25;63.79;;
77361;Laerm;66427;51.798;10.954;2023-06-14T05:41:07;58.57;40.76;70.76;;
77361;Laerm;66427;51.798;10.954;2023-06-14T05:43:32;58.98;40.43;77.60;;
77361;Laerm;66427;51.798;10.954;2023-06-14T05:45:58;56.87;41.34;70.19;;
77361;Laerm;66427;51.798;10.954;2023-06-14T05:48:24;57.88;43.22;74.26;;
77361;Laerm;66427;51.798;10.954;2023-06-14T05:50:50;59.83;43.38;74.46;;
77361;Laerm;66427;51.798;10.954;2023-06-14T05:53:16;50.37;41.59;62.48;;
77361;Laerm;66427;51.798;10.954;2023-06-14T05:55:42;63.43;44.81;80.67;;
77361;Laerm;66427;51.798;10.954;2023-06-14T05:58:08;58.86;41.61;68.52;;
77361;Laerm;66427;51.798;10.954;2023-06-14T06:00:34;50.87;39.61;62.70;;
77361;Laerm;66427;51.798;10.954;2023-06-14T06:03:00;55.18;40.03;65.65;;
77361;Laerm;66427;51.798;10.954;2023-06-14T06:05:26;55.04;39.51;66.10;;
77361;Laerm;66427;51.798;10.954;2023-06-14T06:07:51;55.49;41.49;67.45;;
77361;Laerm;66427;51.798;10.954;2023-06-14T06:10:17;55.50;39.92;66.23;;
77361;Laerm;66427;51.798;10.954;2023-06-14T06:12:43;59.45;40.76;75.34;;
77361;Laerm;66427;51.798;10.954;2023-06-14T06:15:09;54.35;39.69;67.97;;
77361;Laerm;66427;51.798;10.954;2023-06-14T06:17:37;53.71;39.66;67.64;;
77361;Laerm;66427;51.798;10.954;2023-06-14T06:20:03;54.27;39.52;65.38;;
77361;Laerm;66427;51.798;10.954;2023-06-14T06:22:30;52.74;41.07;64.23;;
77361;Laerm;66427;51.798;10.954;2023-06-14T06:24:56;56.18;42.15;80.15;;
77361;Laerm;66427;51.798;10.954;2023-06-14T06:27:22;54.87;41.51;70.26;;
77361;Laerm;66427;51.798;10.954;2023-06-14T06:29:48;48.47;40.97;61.25;;
77361;Laerm;66427;51.798;10.954;2023-06-14T06:32:14;57.89;43.09;73.96;;
77361;Laerm;66427;51.798;10.954;2023-06-14T06:34:40;56.15;41.33;73.27;;
77361;Laerm;66427;51.798;10.954;2023-06-14T06:37:06;54.74;41.21;68.40;;
77361;Laerm;66427;51.798;10.954;2023-06-14T06:39:32;55.76;41.39;66.96;;
77361;Laerm;66427;51.798;10.954;2023-06-14T06:41:59;61.04;43.89;76.01;;
77361;Laerm;66427;51.798;10.954;2023-06-14T06:44:25;57.17;46.50;69.61;;
77361;Laerm;66427;51.798;10.954;2023-06-14T06:46:50;57.81;47.27;68.14;;
77361;Laerm;66427;51.798;10.954;2023-06-14T06:49:16;59.12;48.26;69.28;;
77361;Laerm;66427;51.798;10.954;2023-06-14T06:51:42;55.49;46.47;67.83;;
77361;Laerm;66427;51.798;10.954;2023-06-14T06:54:10;58.61;44.58;72.34;;
77361;Laerm;66427;51.798;10.954;2023-06-14T06:56:36;58.26;46.22;72.03;;
77361;Laerm;66427;51.798;10.954;2023-06-14T06:59:02;55.44;44.47;65.62;;
77361;Laerm;66427;51.798;10.954;2023-06-14T07:01:27;54.33;44.88;65.18;;
77361;Laerm;66427;51.798;10.954;2023-06-14T07:03:54;52.44;43.48;64.87;;
77361;Laerm;66427;51.798;10.954;2023-06-14T07:06:20;55.43;44.54;64.53;;
77361;Laerm;66427;51.798;10.954;2023-06-14T07:08:46;49.10;42.04;60.40;;
77361;Laerm;66427;51.798;10.954;2023-06-14T07:11:15;51.00;39.96;63.38;;
77361;Laerm;66427;51.798;10.954;2023-06-14T07:13:41;51.36;39.53;63.65;;
77361;Laerm;66427;51.798;10.954;2023-06-14T07:16:07;49.40;40.88;62.38;;
77361;Laerm;66427;51.798;10.954;2023-06-14T07:18:33;54.10;40.57;66.30;;
77361;Laerm;66427;51.798;10.954;2023-06-14T07:20:59;56.74;41.00;72.95;;
77361;Laerm;66427;51.798;10.954;2023-06-14T07:23:25;56.34;40.52;66.74;;
77361;Laerm;66427;51.798;10.954;2023-06-14T07:25:51;53.90;40.07;65.86;;
77361;Laerm;66427;51.798;10.954;2023-06-14T07:28:17;51.76;41.62;64.09;;
77361;Laerm;66427;51.798;10.954;2023-06-14T07:30:43;55.08;39.88;66.67;;
77361;Laerm;66427;51.798;10.954;2023-06-14T07:33:09;54.32;40.39;67.03;;
77361;Laerm;66427;51.798;10.954;2023-06-14T07:35:38;62.18;43.06;76.51;;
77361;Laerm;66427;51.798;10.954;2023-06-14T07:38:04;53.12;42.96;65.67;;
77361;Laerm;66427;51.798;10.954;2023-06-14T07:40:30;58.31;45.35;67.95;;
77361;Laerm;66427;51.798;10.954;2023-06-14T07:42:56;55.99;42.68;74.01;;
77361;Laerm;66427;51.798;10.954;2023-06-14T07:45:21;55.55;45.94;66.94;;
77361;Laerm;66427;51.798;10.954;2023-06-14T07:47:47;54.64;44.81;66.26;;
77361;Laerm;66427;51.798;10.954;2023-06-14T07:50:13;55.77;43.61;68.86;;
77361;Laerm;66427;51.798;10.954;2023-06-14T07:52:40;53.77;43.27;62.25;;
77361;Laerm;66427;51.798;10.954;2023-06-14T07:55:05;53.96;42.92;68.31;;
77361;Laerm;66427;51.798;10.954;2023-06-14T07:57:31;56.23;43.35;66.38;;
77361;Laerm;66427;51.798;10.954;2023-06-14T07:59:57;54.72;41.58;65.77;;
77361;Laerm;66427;51.798;10.954;2023-06-14T08:02:23;53.97;43.02;64.95;;
77361;Laerm;66427;51.798;10.954;2023-06-14T08:04:49;52.19;41.77;66.35;;
77361;Laerm;66427;51.798;10.954;2023-06-14T08:07:15;51.58;42.87;61.41;;
77361;Laerm;66427;51.798;10.954;2023-06-14T08:09:41;54.41;42.62;76.97;;
77361;Laerm;66427;51.798;10.954;2023-06-14T08:12:07;54.45;43.71;66.92;;
77361;Laerm;66427;51.798;10.954;2023-06-14T08:14:34;59.20;45.95;69.98;;
77361;Laerm;66427;51.798;10.954;2023-06-14T08:17:00;52.29;40.66;65.29;;
77361;Laerm;66427;51.798;10.954;2023-06-14T08:19:26;58.12;43.14;67.98;;
77361;Laerm;66427;51.798;10.954;2023-06-14T08:21:52;51.77;41.63;66.30;;
77361;Laerm;66427;51.798;10.954;2023-06-14T08:24:20;52.22;41.53;66.49;;
77361;Laerm;66427;51.798;10.954;2023-06-14T08:26:49;60.71;44.74;73.17;;
77361;Laerm;66427;51.798;10.954;2023-06-14T08:29:15;58.05;43.64;75.19;;
77361;Laerm;66427;51.798;10.954;2023-06-14T08:31:41;53.24;42.92;66.84;;
77361;Laerm;66427;51.798;10.954;2023-06-14T08:34:07;57.54;45.05;72.09;;
77361;Laerm;66427;51.798;10.954;2023-06-14T08:36:32;50.66;45.08;64.58;;
77361;Laerm;66427;51.798;10.954;2023-06-14T08:38:58;57.65;45.19;71.21;;
77361;Laerm;66427;51.798;10.954;2023-06-14T08:41:24;55.49;44.07;65.99;;
77361;Laerm;66427;51.798;10.954;2023-06-14T08:43:52;49.35;44.42;59.46;;
77361;Laerm;66427;51.798;10.954;2023-06-14T08:46:18;53.59;43.79;63.99;;
77361;Laerm;66427;51.798;10.954;2023-06-14T08:48:50;52.61;44.71;67.66;;
77361;Laerm;66427;51.798;10.954;2023-06-14T08:51:18;54.60;43.89;66.28;;
77361;Laerm;66427;51.798;10.954;2023-06-14T08:53:44;56.24;43.59;66.65;;
77361;Laerm;66427;51.798;10.954;2023-06-14T08:56:10;51.87;43.59;63.82;;
77361;Laerm;66427;51.798;10.954;2023-06-14T08:58:40;55.03;45.72;64.49;;
77361;Laerm;66427;51.798;10.954;2023-06-14T09:01:10;56.64;44.67;70.00;;
77361;Laerm;66427;51.798;10.954;2023-06-14T09:03:43;62.58;45.49;78.47;;
77361;Laerm;66427;51.798;10.954;2023-06-14T09:06:09;55.62;44.27;70.81;;
77361;Laerm;66427;51.798;10.954;2023-06-14T09:08:44;55.44;44.98;66.86;;
77361;Laerm;66427;51.798;10.954;2023-06-14T09:11:14;63.60;49.22;71.41;;
77361;Laerm;66427;51.798;10.954;2023-06-14T09:13:41;62.55;48.95;71.52;;
77361;Laerm;66427;51.798;10.954;2023-06-14T09:16:07;59.72;47.15;69.13;;
77361;Laerm;66427;51.798;10.954;2023-06-14T09:18:34;60.41;47.14;68.03;;
77361;Laerm;66427;51.798;10.954;2023-06-14T09:21:00;65.89;47.30;87.64;;
77361;Laerm;66427;51.798;10.954;2023-06-14T09:23:26;62.36;47.89;74.83;;
77361;Laerm;66427;51.798;10.954;2023-06-14T09:25:52;56.69;46.58;66.00;;
77361;Laerm;66427;51.798;10.954;2023-06-14T09:28:18;57.33;44.60;69.27;;
77361;Laerm;66427;51.798;10.954;2023-06-14T09:30:48;54.57;44.23;64.71;;
77361;Laerm;66427;51.798;10.954;2023-06-14T09:33:17;63.37;45.87;78.62;;
77361;Laerm;66427;51.798;10.954;2023-06-14T09:35:45;55.84;45.48;71.70;;
77361;Laerm;66427;51.798;10.954;2023-06-14T09:38:11;56.70;42.03;69.74;;
77361;Laerm;66427;51.798;10.954;2023-06-14T09:40:37;53.69;43.16;65.81;;
77361;Laerm;66427;51.798;10.954;2023-06-14T09:43:06;54.09;45.16;66.10;;
77361;Laerm;66427;51.798;10.954;2023-06-14T09:45:35;56.30;45.04;73.35;;
77361;Laerm;66427;51.798;10.954;2023-06-14T09:48:01;54.11;44.68;64.93;;
77361;Laerm;66427;51.798;10.954;2023-06-14T09:50:27;52.78;45.13;63.35;;
77361;Laerm;66427;51.798;10.954;2023-06-14T09:52:53;56.53;42.45;69.66;;
77361;Laerm;66427;51.798;10.954;2023-06-14T09:55:21;54.55;41.78;69.75;;
77361;Laerm;66427;51.798;10.954;2023-06-14T09:57:47;55.23;43.26;68.35;;
77361;Laerm;66427;51.798;10.954;2023-06-14T10:00:13;53.43;42.89;63.32;;
77361;Laerm;66427;51.798;10.954;2023-06-14T10:02:40;52.63;42.36;65.11;;
77361;Laerm;66427;51.798;10.954;2023-06-14T10:05:12;53.84;42.22;64.48;;
77361;Laerm;66427;51.798;10.954;2023-06-14T10:10:12;49.44;43.02;61.94;;
77361;Laerm;66427;51.798;10.954;2023-06-14T10:12:39;54.08;42.30;65.06;;
77361;Laerm;66427;51.798;10.954;2023-06-14T10:15:05;58.74;43.07;73.55;;
77361;Laerm;66427;51.798;10.954;2023-06-14T10:17:40;53.53;47.56;66.11;;
77361;Laerm;66427;51.798;10.954;2023-06-14T10:22:50;55.22;43.55;68.35;;
77361;Laerm;66427;51.798;10.954;2023-06-14T10:25:26;55.50;42.41;68.03;;
77361;Laerm;66427;51.798;10.954;2023-06-14T10:27:53;59.67;42.63;72.88;;
77361;Laerm;66427;51.798;10.954;2023-06-14T10:30:18;54.85;42.41;64.45;;
77361;Laerm;66427;51.798;10.954;2023-06-14T10:33:06;63.58;45.27;85.32;;
77361;Laerm;66427;51.798;10.954;2023-06-14T10:35:33;59.49;45.96;67.86;;
77361;Laerm;66427;51.798;10.954;2023-06-14T10:38:08;59.53;44.34;68.01;;
77361;Laerm;66427;51.798;10.954;2023-06-14T10:40:34;55.30;41.73;66.36;;
77361;Laerm;66427;51.798;10.954;2023-06-14T10:43:01;54.53;44.31;66.71;;
77361;Laerm;66427;51.798;10.954;2023-06-14T10:48:33;54.93;44.31;68.37;;
77361;Laerm;66427;51.798;10.954;2023-06-14T10:51:00;57.83;45.91;69.11;;
77361;Laerm;66427;51.798;10.954;2023-06-14T10:53:27;58.59;46.31;73.54;;
77361;Laerm;66427;51.798;10.954;2023-06-14T10:55:53;56.57;45.10;65.23;;
77361;Laerm;66427;51.798;10.954;2023-06-14T10:58:22;58.54;45.14;74.04;;
77361;Laerm;66427;51.798;10.954;2023-06-14T11:00:48;55.35;45.27;66.10;;
77361;Laerm;66427;51.798;10.954;2023-06-14T11:06:01;56.02;46.04;66.82;;
77361;Laerm;66427;51.798;10.954;2023-06-14T11:08:46;55.98;44.64;70.88;;
77361;Laerm;66427;51.798;10.954;2023-06-14T11:11:17;53.45;43.63;66.13;;
77361;Laerm;66427;51.798;10.954;2023-06-14T11:13:44;57.13;46.20;67.54;;
77361;Laerm;66427;51.798;10.954;2023-06-14T11:16:14;57.70;46.79;71.31;;
77361;Laerm;66427;51.798;10.954;2023-06-14T11:18:40;54.40;44.94;67.01;;
77361;Laerm;66427;51.798;10.954;2023-06-14T11:21:06;55.86;46.45;66.91;;
77361;Laerm;66427;51.798;10.954;2023-06-14T11:23:33;58.80;46.93;71.73;;
77361;Laerm;66427;51.798;10.954;2023-06-14T11:25:59;56.39;47.28;67.49;;
77361;Laerm;66427;51.798;10.954;2023-06-14T11:28:34;53.38;43.73;63.29;;
77361;Laerm;66427;51.798;10.954;2023-06-14T11:31:01;54.37;44.32;65.33;;
77361;Laerm;66427;51.798;10.954;2023-06-14T11:33:28;56.31;45.15;68.32;;
77361;Laerm;66427;51.798;10.954;2023-06-14T11:35:53;55.41;45.32;67.05;;
77361;Laerm;66427;51.798;10.954;2023-06-14T11:38:20;56.18;45.46;71.31;;
77361;Laerm;66427;51.798;10.954;2023-06-14T11:40:46;54.91;45.11;68.58;;
77361;Laerm;66427;51.798;10.954;2023-06-14T11:43:11;56.80;45.44;69.96;;
77361;Laerm;66427;51.798;10.954;2023-06-14T11:45:38;54.05;43.74;67.70;;
77361;Laerm;66427;51.798;10.954;2023-06-14T11:48:05;63.79;46.60;84.58;;
77361;Laerm;66427;51.798;10.954;2023-06-14T11:50:32;53.91;46.28;72.24;;
77361;Laerm;66427;51.798;10.954;2023-06-14T11:52:59;56.40;44.90;70.59;;
77361;Laerm;66427;51.798;10.954;2023-06-14T11:55:32;56.45;46.10;72.80;;
77361;Laerm;66427;51.798;10.954;2023-06-14T11:58:01;55.05;44.39;70.67;;
77361;Laerm;66427;51.798;10.954;2023-06-14T12:00:27;55.03;44.81;65.42;;
77361;Laerm;66427;51.798;10.954;2023-06-14T12:02:53;58.24;44.29;70.25;;
77361;Laerm;66427;51.798;10.954;2023-06-14T12:05:21;53.05;41.88;67.41;;
77361;Laerm;66427;51.798;10.954;2023-06-14T12:07:48;54.56;45.13;64.07;;
77361;Laerm;66427;51.798;10.954;2023-06-14T12:10:13;54.79;45.92;70.71;;
77361;Laerm;66427;51.798;10.954;2023-06-14T12:12:40;50.88;42.86;67.00;;
77361;Laerm;66427;51.798;10.954;2023-06-14T12:15:07;53.74;43.74;72.46;;
77361;Laerm;66427;51.798;10.954;2023-06-14T12:17:34;60.24;45.11;75.50;;
77361;Laerm;66427;51.798;10.954;2023-06-14T12:20:04;52.25;42.83;62.72;;
77361;Laerm;66427;51.798;10.954;2023-06-14T12:22:33;55.39;43.43;72.01;;
77361;Laerm;66427;51.798;10.954;2023-06-14T12:24:59;54.40;41.69;71.35;;
77361;Laerm;66427;51.798;10.954;2023-06-14T12:27:25;59.32;43.30;78.66;;
77361;Laerm;66427;51.798;10.954;2023-06-14T12:30:00;52.63;41.34;66.59;;
77361;Laerm;66427;51.798;10.954;2023-06-14T12:32:26;53.01;40.06;67.05;;
77361;Laerm;66427;51.798;10.954;2023-06-14T12:34:53;55.13;43.52;69.51;;
77361;Laerm;66427;51.798;10.954;2023-06-14T12:37:19;53.13;44.30;66.04;;
77361;Laerm;66427;51.798;10.954;2023-06-14T12:39:45;54.20;45.01;65.55;;
77361;Laerm;66427;51.798;10.954;2023-06-14T12:42:11;55.43;44.09;69.35;;
77361;Laerm;66427;51.798;10.954;2023-06-14T12:44:39;56.10;46.92;65.91;;
77361;Laerm;66427;51.798;10.954;2023-06-14T12:47:09;57.53;45.69;66.59;;
77361;Laerm;66427;51.798;10.954;2023-06-14T12:49:35;62.88;49.00;83.60;;
77361;Laerm;66427;51.798;10.954;2023-06-14T12:52:01;58.19;44.39;71.07;;
77361;Laerm;66427;51.798;10.954;2023-06-14T12:54:27;50.28;42.25;62.55;;
77361;Laerm;66427;51.798;10.954;2023-06-14T12:56:53;56.95;43.43;68.12;;
77361;Laerm;66427;51.798;10.954;2023-06-14T12:59:20;52.62;43.99;67.77;;
77361;Laerm;66427;51.798;10.954;2023-06-14T13:01:46;58.37;44.01;76.18;;
77361;Laerm;66427;51.798;10.954;2023-06-14T13:04:16;54.41;42.58;64.05;;
77361;Laerm;66427;51.798;10.954;2023-06-14T13:06:41;56.60;45.20;66.48;;
77361;Laerm;66427;51.798;10.954;2023-06-14T13:09:07;56.75;44.74;66.38;;
77361;Laerm;66427;51.798;10.954;2023-06-14T13:11:33;55.46;43.80;67.21;;
77361;Laerm;66427;51.798;10.954;2023-06-14T13:13:59;53.71;42.43;66.59;;
77361;Laerm;66427;51.798;10.954;2023-06-14T13:16:25;58.85;45.50;71.01;;
77361;Laerm;66427;51.798;10.954;2023-06-14T13:18:52;54.40;42.30;70.20;;
77361;Laerm;66427;51.798;10.954;2023-06-14T13:21:19;59.92;44.89;75.45;;
77361;Laerm;66427;51.798;10.954;2023-06-14T13:23:46;58.11;45.38;68.76;;
77361;Laerm;66427;51.798;10.954;2023-06-14T13:26:12;58.43;44.80;73.59;;
77361;Laerm;66427;51.798;10.954;2023-06-14T13:28:38;57.58;43.77;69.16;;
77361;Laerm;66427;51.798;10.954;2023-06-14T13:31:04;59.06;42.47;76.08;;
77361;Laerm;66427;51.798;10.954;2023-06-14T13:33:31;57.07;44.16;69.12;;
77361;Laerm;66427;51.798;10.954;2023-06-14T13:35:58;54.75;42.40;65.10;;
77361;Laerm;66427;51.798;10.954;2023-06-14T13:38:25;58.93;44.30;69.31;;
77361;Laerm;66427;51.798;10.954;2023-06-14T13:40:52;52.98;43.50;67.35;;
77361;Laerm;66427;51.798;10.954;2023-06-14T13:43:19;60.02;45.19;78.60;;
77361;Laerm;66427;51.798;10.954;2023-06-14T13:45:45;59.22;44.18;75.11;;